createdAt,value
2019-04-07T00:00:11.755Z,72.78
2019-04-07T00:01:11.462Z,72.68
2019-04-07T00:02:11.907Z,73.07
2019-04-07T00:03:11.559Z,73.54
2019-04-07T00:04:11.135Z,73.07
2019-04-07T00:05:14.186Z,73.35
2019-04-07T00:06:10.968Z,74.02
2019-04-07T00:07:11.472Z,73.73
2019-04-07T00:08:11.184Z,74.02
2019-04-07T00:09:10.817Z,73.63
2019-04-07T00:10:11.102Z,73.73
2019-04-07T00:11:10.626Z,73.63
2019-04-07T00:12:10.394Z,73.63
2019-04-07T00:13:10.651Z,73.92
2019-04-07T00:14:10.410Z,74.21
2019-04-07T00:15:10.411Z,74.21
2019-04-07T00:16:09.926Z,74.30
2019-04-07T00:17:10.492Z,74.02
2019-04-07T00:18:10.304Z,74.21
2019-04-07T00:19:09.851Z,74.21
2019-04-07T00:20:09.761Z,74.21
2019-04-07T00:21:09.981Z,75.16
2019-04-07T00:22:09.321Z,74.74
2019-04-07T00:23:09.598Z,75.22
2019-04-07T00:24:09.237Z,75.13
2019-04-07T00:25:09.016Z,75.79
2019-04-07T00:26:08.916Z,75.70
2019-04-07T00:27:08.816Z,75.35
2019-04-07T00:28:08.714Z,75.16
2019-04-07T00:29:08.741Z,75.07
2019-04-07T00:30:08.851Z,74.88
2019-04-07T00:31:08.442Z,74.02
2019-04-07T00:32:08.556Z,74.59
2019-04-07T00:33:08.209Z,74.40
2019-04-07T00:34:08.133Z,74.40
2019-04-07T00:35:08.061Z,74.21
2019-04-07T00:36:08.287Z,74.30
2019-04-07T00:37:07.907Z,74.21
2019-04-07T00:38:08.345Z,74.40
2019-04-07T00:39:07.602Z,74.40
2019-04-07T00:40:07.500Z,74.59
2019-04-07T00:41:07.866Z,74.49
2019-04-07T00:42:07.301Z,74.11
2019-04-07T00:43:07.211Z,74.88
2019-04-07T00:44:07.142Z,74.88
2019-04-07T00:45:06.995Z,74.69
2019-04-07T00:46:06.896Z,74.59
2019-04-07T00:47:07.291Z,74.78
2019-04-07T00:48:06.899Z,74.59
2019-04-07T00:49:06.641Z,74.49
2019-04-07T00:50:06.548Z,74.11
2019-04-07T00:51:06.643Z,74.49
2019-04-07T00:52:06.291Z,74.11
2019-04-07T00:53:06.535Z,74.49
2019-04-07T00:54:06.175Z,74.69
2019-04-07T00:55:06.493Z,74.69
2019-04-07T00:56:05.890Z,74.30
2019-04-07T00:57:05.785Z,74.59
2019-04-07T00:58:06.157Z,74.88
2019-04-07T00:59:05.582Z,75.51
2019-04-07T01:00:05.894Z,75.51
2019-04-07T01:01:05.390Z,75.79
2019-04-07T01:02:05.854Z,75.79
2019-04-07T01:03:05.181Z,75.70
2019-04-07T01:04:05.650Z,75.60
2019-04-07T01:05:04.994Z,75.51
2019-04-07T01:06:04.946Z,76.37
2019-04-07T01:07:04.825Z,75.60
2019-04-07T01:08:05.208Z,76.18
2019-04-07T01:09:04.585Z,76.08
2019-04-07T01:10:05.025Z,76.18
2019-04-07T01:11:04.637Z,76.37
2019-04-07T01:12:04.265Z,76.46
2019-04-07T01:13:04.470Z,76.84
2019-04-07T01:14:04.095Z,76.84
2019-04-07T01:15:04.293Z,76.65
2019-04-07T01:16:03.899Z,76.84
2019-04-07T01:17:03.761Z,77.03
2019-04-07T01:18:04.243Z,77.32
2019-04-07T01:19:03.561Z,77.03
2019-04-07T01:20:04.064Z,77.51
2019-04-07T01:21:03.746Z,77.70
2019-04-07T01:22:03.861Z,77.51
2019-04-07T01:23:03.884Z,77.99
2019-04-07T01:24:03.331Z,78.28
2019-04-07T01:25:02.950Z,78.18
2019-04-07T01:26:03.221Z,78.09
2019-04-07T01:27:02.855Z,77.99
2019-04-07T01:28:02.645Z,78.37
2019-04-07T01:29:03.073Z,77.99
2019-04-07T01:30:02.848Z,77.80
2019-04-07T01:31:02.402Z,77.99
2019-04-07T01:32:02.240Z,77.89
2019-04-07T01:33:02.201Z,77.51
2019-04-07T01:34:02.164Z,78.09
2019-04-07T01:35:02.409Z,78.09
2019-04-07T01:36:02.074Z,78.18
2019-04-07T01:37:01.733Z,78.23
2019-04-07T01:38:02.429Z,78.05
2019-04-07T01:39:01.532Z,78.14
2019-04-07T01:40:01.540Z,78.23
2019-04-07T01:41:01.963Z,78.33
2019-04-07T01:42:01.590Z,78.33
2019-04-07T01:43:01.133Z,78.14
2019-04-07T01:44:01.022Z,78.23
2019-04-07T01:45:01.359Z,78.52
2019-04-07T01:46:01.124Z,78.81
2019-04-07T01:47:01.322Z,78.91
2019-04-07T01:48:00.717Z,79.28
2019-04-07T01:49:01.005Z,79.10
2019-04-07T01:50:00.477Z,79.28
2019-04-07T01:51:00.310Z,79.77
2019-04-07T01:52:00.797Z,79.77
2019-04-07T01:53:00.111Z,79.10
2019-04-07T01:54:00.029Z,79.10
2019-04-07T01:55:00.169Z,78.91
2019-04-07T01:56:00.216Z,79.10
2019-04-07T01:57:00.221Z,79.67
2019-04-07T01:57:59.964Z,79.57
2019-04-07T01:58:59.500Z,79.28
2019-04-07T01:59:59.398Z,79.28
2019-04-07T02:01:00.315Z,79.48
2019-04-07T02:01:59.368Z,79.48
2019-04-07T02:02:59.097Z,79.38
2019-04-07T02:03:58.989Z,79.96
2019-04-07T02:04:58.916Z,79.67
2019-04-07T02:06:02.549Z,79.48
2019-04-07T02:06:58.685Z,79.67
2019-04-07T02:07:59.153Z,79.77
2019-04-07T02:08:58.483Z,79.57
2019-04-07T02:09:58.655Z,79.67
2019-04-07T02:10:58.317Z,80.05
2019-04-07T02:11:58.367Z,80.72
2019-04-07T02:12:58.145Z,80.62
2019-04-07T02:13:58.391Z,80.24
2019-04-07T02:14:57.935Z,79.96
2019-04-07T02:15:57.791Z,80.43
2019-04-07T02:16:57.790Z,80.72
2019-04-07T02:17:58.189Z,80.91
2019-04-07T02:18:57.465Z,81.58
2019-04-07T02:19:57.477Z,81.15
2019-04-07T02:20:57.619Z,81.44
2019-04-07T02:21:57.160Z,81.73
2019-04-07T02:22:57.369Z,81.35
2019-04-07T02:23:57.550Z,81.44
2019-04-07T02:24:57.502Z,81.29
2019-04-07T02:25:56.985Z,81.63
2019-04-07T02:26:56.651Z,81.44
2019-04-07T02:27:56.875Z,81.82
2019-04-07T02:28:56.454Z,82.01
2019-04-07T02:29:56.345Z,81.92
2019-04-07T02:30:56.250Z,81.82
2019-04-07T02:31:56.320Z,82.40
2019-04-07T02:32:56.039Z,82.68
2019-04-07T02:33:56.252Z,82.68
2019-04-07T02:34:55.910Z,83.16
2019-04-07T02:35:56.055Z,83.25
2019-04-07T02:36:56.051Z,83.35
2019-04-07T02:37:55.530Z,83.73
2019-04-07T02:38:56.142Z,83.35
2019-04-07T02:39:55.329Z,83.83
2019-04-07T02:40:55.710Z,83.92
2019-04-07T02:41:55.133Z,84.49
2019-04-07T02:42:55.887Z,85.06
2019-04-07T02:43:55.573Z,85.16
2019-04-07T02:44:54.819Z,85.64
2019-04-07T02:45:56.459Z,85.45
2019-04-07T02:46:54.739Z,86.02
2019-04-07T02:47:54.600Z,85.73
2019-04-07T02:48:54.452Z,86.21
2019-04-07T02:49:54.309Z,86.16
2019-04-07T02:50:54.873Z,86.07
2019-04-07T02:51:54.221Z,86.59
2019-04-07T02:52:54.652Z,86.21
2019-04-07T02:53:53.961Z,86.88
2019-04-07T02:54:54.029Z,86.78
2019-04-07T02:55:53.719Z,86.93
2019-04-07T02:56:54.274Z,87.21
2019-04-07T02:57:54.147Z,87.69
2019-04-07T02:58:53.390Z,87.88
2019-04-07T02:59:53.468Z,88.26
2019-04-07T03:00:54.089Z,88.64
2019-04-07T03:01:53.085Z,89.22
2019-04-07T03:02:53.914Z,89.50
2019-04-07T03:03:52.880Z,89.50
2019-04-07T03:04:52.777Z,90.64
2019-04-07T03:05:52.677Z,90.36
2019-04-07T03:06:53.555Z,90.36
2019-04-07T03:07:53.092Z,92.08
2019-04-07T03:08:52.655Z,91.60
2019-04-07T03:09:52.272Z,91.31
2019-04-07T03:10:52.169Z,91.79
2019-04-07T03:11:52.432Z,91.60
2019-04-07T03:12:51.976Z,91.03
2019-04-07T03:13:52.128Z,91.22
2019-04-07T03:14:52.902Z,91.22
2019-04-07T03:15:52.681Z,91.22
2019-04-07T03:16:51.587Z,91.50
2019-04-07T03:17:51.979Z,91.88
2019-04-07T03:18:51.349Z,91.46
2019-04-07T03:19:52.033Z,92.32
2019-04-07T03:20:51.532Z,92.50
2019-04-07T03:21:51.043Z,92.50
2019-04-07T03:22:50.952Z,93.37
2019-04-07T03:23:51.399Z,93.55
2019-04-07T03:24:51.555Z,93.17
2019-04-07T03:25:50.978Z,93.65
2019-04-07T03:26:51.391Z,94.32
2019-04-07T03:27:51.407Z,93.93
2019-04-07T03:28:50.335Z,94.03
2019-04-07T03:29:50.289Z,93.84
2019-04-07T03:30:51.914Z,94.03
2019-04-07T03:31:51.423Z,94.41
2019-04-07T03:32:53.232Z,94.13
2019-04-07T03:33:50.008Z,94.13
2019-04-07T03:34:51.340Z,94.60
2019-04-07T03:35:52.847Z,94.51
2019-04-07T03:37:17.248Z,94.32
2019-04-07T03:37:49.467Z,94.70
2019-04-07T03:38:50.184Z,94.46
2019-04-07T03:39:49.267Z,94.89
2019-04-07T03:40:49.806Z,94.60
2019-04-07T03:41:49.212Z,94.41
2019-04-07T03:42:49.635Z,94.32
2019-04-07T03:43:49.436Z,94.51
2019-04-07T03:44:49.009Z,94.32
2019-04-07T03:45:48.590Z,94.32
2019-04-07T03:46:49.339Z,94.41
2019-04-07T03:47:48.384Z,95.27
2019-04-07T03:48:48.283Z,94.51
2019-04-07T03:49:48.181Z,94.79
2019-04-07T03:50:48.094Z,94.22
2019-04-07T03:51:48.100Z,94.70
2019-04-07T03:52:48.752Z,94.13
2019-04-07T03:53:48.777Z,94.89
2019-04-07T03:54:47.666Z,94.32
2019-04-07T03:55:47.564Z,95.08
2019-04-07T03:56:47.686Z,94.89
2019-04-07T03:57:47.834Z,95.08
2019-04-07T03:58:47.259Z,95.17
2019-04-07T03:59:47.158Z,95.27
2019-04-07T04:00:47.664Z,95.08
2019-04-07T04:01:47.759Z,94.98
2019-04-07T04:02:46.854Z,94.70
2019-04-07T04:03:46.741Z,95.32
2019-04-07T04:04:46.641Z,95.22
2019-04-07T04:05:47.709Z,95.41
2019-04-07T04:06:47.201Z,95.32
2019-04-07T04:07:47.096Z,95.12
2019-04-07T04:08:46.233Z,95.41
2019-04-07T04:09:46.133Z,95.51
2019-04-07T04:10:46.027Z,95.32
2019-04-07T04:11:46.914Z,95.89
2019-04-07T04:12:46.782Z,95.41
2019-04-07T04:13:45.765Z,95.79
2019-04-07T04:14:45.674Z,96.08
2019-04-07T04:15:45.512Z,95.22
2019-04-07T04:16:45.786Z,95.51
2019-04-07T04:17:45.721Z,95.89
2019-04-07T04:18:45.705Z,95.79
2019-04-07T04:19:45.109Z,95.32
2019-04-07T04:20:44.998Z,95.98
2019-04-07T04:21:45.548Z,95.41
2019-04-07T04:22:44.798Z,95.60
2019-04-07T04:23:45.687Z,95.60
2019-04-07T04:24:44.590Z,95.41
2019-04-07T04:25:45.439Z,95.51
2019-04-07T04:26:44.383Z,95.32
2019-04-07T04:27:44.312Z,95.65
2019-04-07T04:28:44.261Z,95.41
2019-04-07T04:29:44.814Z,95.65
2019-04-07T04:30:44.047Z,95.27
2019-04-07T04:31:43.869Z,95.65
2019-04-07T04:32:43.868Z,95.65
2019-04-07T04:33:44.279Z,95.41
2019-04-07T04:34:43.561Z,95.17
2019-04-07T04:35:44.141Z,95.46
2019-04-07T04:36:43.356Z,95.56
2019-04-07T04:37:48.752Z,95.08
2019-04-07T04:38:43.941Z,95.46
2019-04-07T04:39:43.049Z,95.27
2019-04-07T04:40:44.021Z,95.75
2019-04-07T04:41:42.843Z,94.79
2019-04-07T04:42:42.758Z,95.65
2019-04-07T04:43:42.639Z,95.36
2019-04-07T04:44:44.153Z,95.46
2019-04-07T04:45:42.443Z,95.46
2019-04-07T04:46:42.663Z,95.65
2019-04-07T04:47:42.832Z,94.89
2019-04-07T04:48:42.902Z,94.79
2019-04-07T04:49:42.033Z,95.36
2019-04-07T04:50:42.134Z,95.65
2019-04-07T04:51:42.560Z,95.36
2019-04-07T04:52:42.563Z,95.36
2019-04-07T04:53:42.301Z,95.17
2019-04-07T04:54:42.150Z,94.89
2019-04-07T04:55:41.405Z,94.98
2019-04-07T04:56:41.408Z,94.60
2019-04-07T04:57:41.204Z,95.12
2019-04-07T04:58:41.097Z,94.37
2019-04-07T04:59:40.996Z,93.60
2019-04-07T05:00:41.454Z,93.12
2019-04-07T05:01:40.789Z,93.32
2019-04-07T05:02:41.274Z,91.69
2019-04-07T05:03:40.681Z,91.83
2019-04-07T05:04:40.488Z,91.27
2019-04-07T05:05:41.256Z,89.64
2019-04-07T05:06:40.281Z,89.26
2019-04-07T05:07:50.234Z,88.12
2019-04-07T05:08:40.081Z,87.93
2019-04-07T05:09:46.234Z,86.78
2019-04-07T05:10:40.340Z,86.30
2019-04-07T05:11:39.798Z,85.97
2019-04-07T05:12:40.206Z,85.01
2019-04-07T05:13:39.570Z,84.34
2019-04-07T05:14:40.025Z,84.34
2019-04-07T05:15:39.916Z,84.25
2019-04-07T05:16:39.932Z,83.48
2019-04-07T05:17:39.168Z,83.29
2019-04-07T05:18:39.062Z,82.91
2019-04-07T05:19:41.896Z,82.15
2019-04-07T05:20:38.874Z,81.96
2019-04-07T05:21:39.391Z,81.38
2019-04-07T05:22:38.960Z,80.95
2019-04-07T05:23:38.571Z,79.99
2019-04-07T05:24:38.462Z,79.04
2019-04-07T05:25:38.355Z,78.13
2019-04-07T05:26:38.817Z,77.26
2019-04-07T05:27:38.276Z,76.79
2019-04-07T05:28:38.105Z,75.64
2019-04-07T05:29:37.959Z,75.74
2019-04-07T05:30:38.058Z,74.98
2019-04-07T05:31:38.521Z,74.53
2019-04-07T05:32:37.794Z,73.67
2019-04-07T05:33:37.549Z,73.14
2019-04-07T05:34:37.772Z,72.47
2019-04-07T05:35:37.867Z,72.66
2019-04-07T05:36:37.876Z,72.24
2019-04-07T05:37:37.147Z,72.43
2019-04-07T05:38:37.736Z,72.81
2019-04-07T05:39:37.206Z,72.08
2019-04-07T05:40:36.852Z,71.70
2019-04-07T05:41:37.218Z,71.51
2019-04-07T05:42:36.651Z,71.70
2019-04-07T05:43:36.903Z,71.42
2019-04-07T05:44:37.138Z,70.65
2019-04-07T05:45:37.494Z,70.75
2019-04-07T05:46:40.113Z,70.68
2019-04-07T05:47:36.520Z,70.59
2019-04-07T05:48:36.058Z,69.60
2019-04-07T05:49:36.359Z,69.73
2019-04-07T05:50:36.038Z,70.11
2019-04-07T05:51:35.751Z,68.96
2019-04-07T05:52:39.297Z,69.15
2019-04-07T05:53:35.554Z,69.15
2019-04-07T05:54:36.151Z,69.06
2019-04-07T05:55:35.355Z,69.06
2019-04-07T05:56:35.831Z,69.44
2019-04-07T05:57:35.978Z,68.71
2019-04-07T05:58:37.572Z,68.20
2019-04-07T05:59:35.414Z,68.58
2019-04-07T06:00:35.093Z,69.06
2019-04-07T06:01:35.414Z,68.90
2019-04-07T06:02:35.254Z,68.33
2019-04-07T06:03:38.611Z,68.42
2019-04-07T06:04:34.898Z,67.85
2019-04-07T06:05:34.493Z,67.37
2019-04-07T06:06:34.324Z,67.31
2019-04-07T06:07:35.967Z,66.64
2019-04-07T06:08:38.727Z,66.70
2019-04-07T06:09:34.022Z,66.22
2019-04-07T06:10:33.878Z,66.70
2019-04-07T06:11:35.467Z,67.08
2019-04-07T06:12:33.901Z,67.37
2019-04-07T06:13:34.475Z,66.74
2019-04-07T06:14:33.556Z,65.88
2019-04-07T06:15:33.539Z,65.42
2019-04-07T06:16:33.390Z,64.50
2019-04-07T06:17:33.191Z,63.51
2019-04-07T06:18:34.240Z,63.35
2019-04-07T06:19:37.485Z,62.59
2019-04-07T06:20:33.358Z,62.33
2019-04-07T06:21:33.334Z,61.91
2019-04-07T06:22:32.705Z,62.01
2019-04-07T06:23:33.143Z,62.49
2019-04-07T06:24:34.109Z,62.59
2019-04-07T06:25:36.863Z,62.59
2019-04-07T06:26:32.994Z,63.60
2019-04-07T06:27:32.548Z,64.18
2019-04-07T06:28:32.671Z,63.99
2019-04-07T06:29:32.024Z,64.18
2019-04-07T06:30:32.993Z,63.92
2019-04-07T06:31:33.758Z,62.49
2019-04-07T06:32:35.199Z,62.26
2019-04-07T06:33:32.033Z,62.26
2019-04-07T06:34:31.586Z,63.16
2019-04-07T06:35:31.495Z,62.23
2019-04-07T06:36:31.919Z,61.85
2019-04-07T06:37:31.698Z,61.24
2019-04-07T06:38:34.600Z,61.91
2019-04-07T06:39:32.243Z,61.85
2019-04-07T06:40:31.712Z,61.59
2019-04-07T06:41:32.352Z,61.11
2019-04-07T06:42:32.402Z,60.53
2019-04-07T06:43:31.255Z,60.28
2019-04-07T06:44:30.577Z,59.70
2019-04-07T06:45:30.580Z,59.48
2019-04-07T06:46:30.594Z,59.99
2019-04-07T06:47:31.299Z,59.06
2019-04-07T06:48:30.599Z,58.10
2019-04-07T06:49:30.094Z,57.65
2019-04-07T06:50:30.002Z,57.55
2019-04-07T06:51:31.088Z,57.90
2019-04-07T06:52:30.272Z,58.33
2019-04-07T06:53:30.123Z,59.77
2019-04-07T06:54:29.856Z,59.58
2019-04-07T06:55:30.109Z,59.48
2019-04-07T06:56:32.158Z,60.72
2019-04-07T06:57:29.842Z,60.25
2019-04-07T06:58:29.868Z,61.21
2019-04-07T06:59:29.307Z,60.35
2019-04-07T07:00:29.043Z,59.89
2019-04-07T07:01:29.657Z,59.58
2019-04-07T07:02:30.222Z,60.35
2019-04-07T07:03:29.129Z,59.77
2019-04-07T07:04:28.663Z,60.53
2019-04-07T07:05:28.921Z,59.70
2019-04-07T07:06:28.553Z,59.19
2019-04-07T07:07:28.380Z,59.89
2019-04-07T07:08:28.402Z,59.96
2019-04-07T07:09:28.784Z,60.08
2019-04-07T07:10:30.253Z,59.99
2019-04-07T07:11:30.086Z,59.38
2019-04-07T07:12:35.117Z,59.48
2019-04-07T07:13:32.228Z,59.41
2019-04-07T07:14:34.924Z,59.77
2019-04-07T07:15:28.263Z,61.08
2019-04-07T07:16:27.682Z,61.18
2019-04-07T07:17:27.920Z,61.53
2019-04-07T07:18:27.391Z,62.20
2019-04-07T07:19:28.587Z,62.77
2019-04-07T07:20:28.793Z,62.59
2019-04-07T07:21:27.418Z,62.68
2019-04-07T07:22:27.024Z,63.80
2019-04-07T07:23:27.307Z,65.01
2019-04-07T07:24:27.548Z,65.36
2019-04-07T07:25:29.785Z,66.51
2019-04-07T07:26:26.575Z,67.18
2019-04-07T07:27:27.322Z,67.27
2019-04-07T07:28:26.379Z,68.13
2019-04-07T07:29:26.870Z,67.85
2019-04-07T07:30:26.193Z,67.94
2019-04-07T07:31:26.621Z,67.47
2019-04-07T07:32:25.995Z,67.85
2019-04-07T07:33:25.900Z,68.23
2019-04-07T07:34:25.806Z,68.33
2019-04-07T07:35:25.706Z,67.94
2019-04-07T07:36:26.344Z,68.80
2019-04-07T07:37:26.912Z,68.55
2019-04-07T07:38:27.013Z,67.98
2019-04-07T07:39:26.186Z,68.17
2019-04-07T07:40:25.397Z,67.21
2019-04-07T07:41:25.337Z,67.31
2019-04-07T07:42:25.655Z,67.31
2019-04-07T07:43:27.939Z,67.41
2019-04-07T07:44:24.897Z,66.93
2019-04-07T07:45:25.017Z,67.11
2019-04-07T07:46:24.629Z,66.83
2019-04-07T07:47:25.308Z,67.50
2019-04-07T07:48:27.038Z,67.21
2019-04-07T07:49:24.753Z,67.41
2019-04-07T07:50:24.526Z,67.47
2019-04-07T07:51:24.720Z,67.31
2019-04-07T07:52:24.277Z,67.31
2019-04-07T07:53:27.251Z,67.31
2019-04-07T07:54:27.732Z,67.69
2019-04-07T07:55:23.743Z,67.21
2019-04-07T07:56:23.647Z,67.02
2019-04-07T07:57:24.884Z,67.21
2019-04-07T07:58:23.638Z,67.21
2019-04-07T07:59:24.134Z,66.54
2019-04-07T08:00:23.252Z,67.02
2019-04-07T08:01:23.511Z,67.31
2019-04-07T08:02:23.710Z,67.02
2019-04-07T08:03:23.051Z,67.15
2019-04-07T08:04:24.905Z,66.48
2019-04-07T08:05:22.823Z,67.34
2019-04-07T08:06:22.659Z,67.05
2019-04-07T08:07:22.569Z,66.77
2019-04-07T08:08:23.341Z,66.38
2019-04-07T08:09:24.792Z,66.48
2019-04-07T08:10:25.060Z,65.91
2019-04-07T08:11:22.730Z,66.29
2019-04-07T08:12:22.678Z,66.29
2019-04-07T08:13:21.971Z,65.62
2019-04-07T08:14:21.874Z,65.81
2019-04-07T08:15:25.510Z,66.38
2019-04-07T08:16:21.708Z,66.00
2019-04-07T08:17:21.575Z,65.75
2019-04-07T08:18:21.715Z,65.33
2019-04-07T08:19:24.241Z,65.08
2019-04-07T08:20:21.997Z,65.65
2019-04-07T08:21:21.184Z,65.36
2019-04-07T08:22:31.189Z,65.75
2019-04-07T08:23:21.085Z,65.46
2019-04-07T08:24:20.897Z,65.17
2019-04-07T08:25:23.700Z,64.89
2019-04-07T08:26:24.051Z,64.50
2019-04-07T08:27:20.599Z,64.53
2019-04-07T08:28:20.872Z,65.01
2019-04-07T08:29:20.396Z,64.43
2019-04-07T08:30:20.300Z,64.25
2019-04-07T08:31:21.442Z,63.96
2019-04-07T08:32:24.254Z,64.34
2019-04-07T08:33:20.185Z,63.96
2019-04-07T08:34:19.901Z,63.48
2019-04-07T08:35:19.834Z,63.67
2019-04-07T08:36:19.795Z,63.89
2019-04-07T08:37:20.107Z,64.09
2019-04-07T08:38:21.796Z,63.42
2019-04-07T08:39:25.044Z,63.48
2019-04-07T08:40:19.870Z,63.29
2019-04-07T08:41:19.213Z,64.34
2019-04-07T08:42:19.756Z,64.53
2019-04-07T08:43:21.914Z,63.76
2019-04-07T08:44:18.920Z,63.76
2019-04-07T08:45:18.941Z,64.25
2019-04-07T08:46:18.847Z,64.25
2019-04-07T08:47:21.139Z,63.86
2019-04-07T08:48:20.535Z,63.48
2019-04-07T08:49:19.145Z,63.38
2019-04-07T08:50:20.529Z,63.67
2019-04-07T08:51:18.971Z,64.05
2019-04-07T08:52:18.485Z,63.19
2019-04-07T08:53:18.380Z,64.25
2019-04-07T08:54:18.460Z,63.51
2019-04-07T08:55:20.097Z,63.22
2019-04-07T08:56:17.891Z,63.51
2019-04-07T08:57:17.894Z,62.45
2019-04-07T08:58:25.005Z,62.55
2019-04-07T08:59:18.255Z,62.65
2019-04-07T09:00:18.341Z,62.81
2019-04-07T09:01:20.384Z,62.23
2019-04-07T09:02:18.954Z,62.42
2019-04-07T09:03:17.180Z,62.45
2019-04-07T09:04:17.801Z,62.71
2019-04-07T09:05:20.594Z,62.13
2019-04-07T09:06:17.314Z,62.36
2019-04-07T09:07:17.498Z,62.36
2019-04-07T09:08:17.786Z,63.22
2019-04-07T09:09:16.889Z,62.45
2019-04-07T09:10:18.257Z,62.16
2019-04-07T09:11:19.762Z,61.88
2019-04-07T09:12:16.176Z,61.88
2019-04-07T09:13:16.078Z,61.59
2019-04-07T09:14:17.262Z,62.07
2019-04-07T09:15:16.511Z,61.98
2019-04-07T09:16:17.345Z,61.21
2019-04-07T09:17:28.128Z,61.40
2019-04-07T09:18:16.139Z,61.59
2019-04-07T09:19:15.495Z,61.30
2019-04-07T09:20:15.448Z,61.21
2019-04-07T09:21:16.316Z,61.30
2019-04-07T09:22:15.517Z,60.53
2019-04-07T09:23:15.097Z,60.85
2019-04-07T09:24:15.111Z,60.75
2019-04-07T09:25:15.050Z,60.35
2019-04-07T09:26:15.051Z,60.75
2019-04-07T09:27:18.142Z,60.38
2019-04-07T09:28:14.626Z,60.28
2019-04-07T09:29:15.125Z,60.85
2019-04-07T09:30:14.414Z,61.43
2019-04-07T09:31:14.425Z,59.70
2019-04-07T09:32:14.217Z,59.70
2019-04-07T09:33:14.812Z,58.74
2019-04-07T09:34:18.944Z,58.10
2019-04-07T09:35:14.413Z,58.10
2019-04-07T09:36:13.825Z,58.20
2019-04-07T09:37:13.729Z,57.52
2019-04-07T09:38:14.330Z,57.04
2019-04-07T09:39:14.406Z,57.23
2019-04-07T09:40:16.432Z,56.46
2019-04-07T09:41:14.293Z,57.62
2019-04-07T09:42:13.701Z,57.71
2019-04-07T09:43:13.724Z,57.52
2019-04-07T09:44:13.596Z,58.10
2019-04-07T09:45:13.782Z,57.33
2019-04-07T09:46:13.574Z,57.14
2019-04-07T09:47:15.798Z,56.66
2019-04-07T09:48:12.655Z,57.52
2019-04-07T09:49:12.556Z,57.50
2019-04-07T09:50:12.461Z,57.97
2019-04-07T09:51:12.561Z,58.36
2019-04-07T09:52:14.890Z,57.97
2019-04-07T09:53:15.786Z,57.59
2019-04-07T09:54:12.238Z,57.68
2019-04-07T09:55:12.033Z,58.17
2019-04-07T09:56:11.989Z,57.97
2019-04-07T09:57:11.782Z,57.30
2019-04-07T09:58:11.977Z,57.78
2019-04-07T09:59:15.025Z,56.82
2019-04-07T10:00:11.550Z,57.52
2019-04-07T10:01:12.085Z,57.23
2019-04-07T10:02:11.474Z,56.66
2019-04-07T10:03:13.712Z,56.46
2019-04-07T10:04:12.101Z,56.46
2019-04-07T10:05:11.272Z,55.69
2019-04-07T10:06:10.905Z,55.79
2019-04-07T10:07:11.147Z,55.77
2019-04-07T10:08:12.519Z,55.67
2019-04-07T10:09:11.306Z,55.86
2019-04-07T10:10:13.741Z,55.69
2019-04-07T10:11:10.419Z,55.67
2019-04-07T10:12:10.320Z,56.27
2019-04-07T10:13:10.221Z,55.79
2019-04-07T10:14:10.123Z,55.19
2019-04-07T10:15:11.788Z,55.89
2019-04-07T10:16:10.629Z,56.46
2019-04-07T10:17:10.729Z,56.27
2019-04-07T10:18:09.816Z,56.27
2019-04-07T10:19:09.869Z,55.60
2019-04-07T10:20:09.545Z,56.56
2019-04-07T10:21:09.888Z,55.79
2019-04-07T10:22:09.543Z,55.41
2019-04-07T10:23:09.435Z,55.12
2019-04-07T10:24:09.153Z,54.93
2019-04-07T10:25:09.312Z,55.12
2019-04-07T10:26:09.469Z,54.77
2019-04-07T10:27:09.275Z,53.58
2019-04-07T10:28:10.758Z,53.90
2019-04-07T10:29:08.669Z,53.78
2019-04-07T10:30:08.676Z,54.57
2019-04-07T10:31:09.219Z,54.28
2019-04-07T10:32:08.852Z,54.55
2019-04-07T10:33:08.875Z,55.02
2019-04-07T10:34:08.253Z,55.05
2019-04-07T10:35:08.162Z,55.15
2019-04-07T10:36:07.987Z,54.96
2019-04-07T10:37:08.136Z,55.05
2019-04-07T10:38:07.791Z,54.77
2019-04-07T10:39:08.396Z,55.02
2019-04-07T10:40:16.719Z,55.69
2019-04-07T10:41:07.500Z,55.79
2019-04-07T10:42:07.404Z,55.91
2019-04-07T10:43:07.327Z,55.44
2019-04-07T10:44:07.417Z,55.82
2019-04-07T10:45:07.298Z,55.34
2019-04-07T10:46:07.017Z,54.77
2019-04-07T10:47:07.166Z,54.67
2019-04-07T10:48:07.005Z,54.67
2019-04-07T10:49:06.825Z,55.05
2019-04-07T10:50:08.443Z,54.86
2019-04-07T10:51:06.794Z,54.83
2019-04-07T10:52:06.432Z,55.12
2019-04-07T10:53:06.332Z,54.16
2019-04-07T10:54:06.613Z,54.83
2019-04-07T10:55:06.142Z,54.83
2019-04-07T10:56:06.818Z,55.44
2019-04-07T10:57:06.487Z,54.86
2019-04-07T10:58:05.851Z,54.57
2019-04-07T10:59:05.753Z,53.23
2019-04-07T11:00:05.811Z,52.84
2019-04-07T11:01:06.367Z,52.29
2019-04-07T11:02:05.817Z,51.21
2019-04-07T11:03:05.377Z,51.88
2019-04-07T11:04:06.059Z,51.69
2019-04-07T11:05:05.199Z,52.46
2019-04-07T11:06:05.178Z,53.03
2019-04-07T11:07:05.253Z,53.52
2019-04-07T11:08:04.980Z,53.52
2019-04-07T11:09:04.847Z,52.68
2019-04-07T11:10:04.857Z,52.97
2019-04-07T11:11:04.609Z,52.87
2019-04-07T11:12:04.631Z,51.53
2019-04-07T11:13:04.426Z,51.02
2019-04-07T11:14:04.679Z,51.21
2019-04-07T11:15:04.665Z,50.95
2019-04-07T11:16:04.945Z,50.66
2019-04-07T11:17:04.716Z,49.87
2019-04-07T11:18:04.195Z,50.05
2019-04-07T11:19:04.481Z,50.05
2019-04-07T11:20:03.716Z,49.89
2019-04-07T11:21:04.603Z,48.93
2019-04-07T11:22:03.527Z,47.87
2019-04-07T11:23:03.427Z,47.77
2019-04-07T11:24:03.883Z,47.68
2019-04-07T11:25:03.616Z,47.87
2019-04-07T11:26:03.605Z,47.94
2019-04-07T11:27:03.044Z,49.51
2019-04-07T11:28:02.962Z,49.51
2019-04-07T11:29:02.849Z,49.22
2019-04-07T11:30:02.749Z,48.74
2019-04-07T11:31:02.651Z,48.66
2019-04-07T11:32:02.556Z,47.87
2019-04-07T11:33:02.758Z,48.35
2019-04-07T11:34:03.256Z,47.58
2019-04-07T11:35:02.777Z,48.07
2019-04-07T11:36:02.423Z,48.54
2019-04-07T11:37:02.099Z,48.54
2019-04-07T11:38:02.634Z,47.87
2019-04-07T11:39:02.494Z,47.87
2019-04-07T11:40:02.238Z,47.30
2019-04-07T11:41:02.498Z,47.58
2019-04-07T11:42:01.591Z,47.68
2019-04-07T11:43:02.226Z,48.25
2019-04-07T11:44:01.996Z,48.33
2019-04-07T11:45:01.320Z,49.38
2019-04-07T11:46:03.039Z,49.48
2019-04-07T11:47:02.106Z,49.41
2019-04-07T11:48:01.011Z,47.87
2019-04-07T11:49:00.915Z,46.81
2019-04-07T11:50:01.365Z,46.43
2019-04-07T11:51:00.721Z,47.00
2019-04-07T11:52:01.619Z,47.58
2019-04-07T11:53:00.598Z,47.58
2019-04-07T11:54:01.546Z,47.39
2019-04-07T11:55:00.771Z,47.58
2019-04-07T11:56:01.501Z,46.91
2019-04-07T11:57:00.863Z,47.39
2019-04-07T11:58:09.694Z,48.16
2019-04-07T11:59:00.630Z,48.74
2019-04-07T12:00:00.024Z,49.60
2019-04-07T12:00:59.752Z,49.51
2019-04-07T12:01:59.778Z,49.51
2019-04-07T12:02:59.602Z,49.12
2019-04-07T12:03:59.953Z,47.97
2019-04-07T12:04:59.980Z,47.58
2019-04-07T12:05:59.856Z,47.49
2019-04-07T12:07:00.017Z,47.68
2019-04-07T12:07:59.664Z,46.23
2019-04-07T12:08:59.054Z,46.23
2019-04-07T12:09:59.565Z,45.76
2019-04-07T12:11:02.767Z,44.79
2019-04-07T12:11:59.231Z,44.70
2019-04-07T12:12:59.138Z,45.85
2019-04-07T12:13:58.686Z,46.33
2019-04-07T12:14:58.857Z,46.14
2019-04-07T12:15:58.304Z,46.23
2019-04-07T12:16:59.373Z,46.04
2019-04-07T12:17:58.134Z,46.04
2019-04-07T12:18:58.015Z,45.95
2019-04-07T12:19:58.135Z,45.85
2019-04-07T12:21:00.882Z,46.14
2019-04-07T12:21:57.934Z,46.33
2019-04-07T12:22:58.194Z,44.60
2019-04-07T12:23:58.235Z,44.41
2019-04-07T12:25:00.677Z,43.28
2019-04-07T12:25:57.639Z,42.60
2019-04-07T12:26:59.898Z,42.89
2019-04-07T12:27:57.927Z,43.08
2019-04-07T12:28:57.951Z,42.58
2019-04-07T12:29:56.998Z,42.20
2019-04-07T12:30:56.919Z,42.49
2019-04-07T12:31:57.771Z,41.91
2019-04-07T12:32:57.516Z,40.85
2019-04-07T12:33:57.347Z,40.85
2019-04-07T12:34:56.646Z,41.33
2019-04-07T12:35:56.407Z,41.83
2019-04-07T12:36:57.150Z,41.93
2019-04-07T12:37:58.352Z,38.47
2019-04-07T12:38:56.328Z,38.76
2019-04-07T12:39:55.985Z,38.47
2019-04-07T12:41:10.280Z,38.56
2019-04-07T12:41:57.274Z,37.99
2019-04-07T12:42:55.694Z,39.53
2019-04-07T12:43:56.209Z,40.78
2019-04-07T12:44:55.577Z,41.64
2019-04-07T12:45:55.403Z,43.37
2019-04-07T12:46:55.715Z,43.08
2019-04-07T12:47:55.326Z,43.28
2019-04-07T12:48:55.407Z,43.18
2019-04-07T12:49:55.205Z,44.43
2019-04-07T12:50:55.260Z,44.05